Time;durP1;ratioP1;P1;durP2;ratioP2;P2;SDS_P1;SDS_P2;PMS_P1;PMS_P2;Temp;Humidity;BMP_temperature;BMP_pressure;BME280_temperature;BME280_humidity;BME280_pressure;Samples;Min_cycle;Max_cycle;Signal;HPM_P1;HPM_P2
2022/03/28 00:01:25;;;;;;;20.27;5.37;;;7.00;99.90;;;;;;4988139;28;20635;-84
2022/03/28 00:03:53;;;;;;;24.00;5.63;;;6.80;99.90;;;;;;4991771;28;20236;-85
2022/03/28 00:06:21;;;;;;;27.50;5.87;;;6.80;99.90;;;;;;4989074;28;20208;-85
2022/03/28 00:08:49;;;;;;;25.97;6.27;;;6.80;99.90;;;;;;5008792;28;20203;-85
2022/03/28 00:11:17;;;;;;;28.10;5.87;;;6.80;99.90;;;;;;5000500;28;20235;-85
2022/03/28 00:13:45;;;;;;;22.60;6.50;;;6.70;99.90;;;;;;5005659;28;20211;-85
2022/03/28 00:16:12;;;;;;;21.13;5.53;;;6.70;99.90;;;;;;5002918;28;20249;-85
2022/03/28 00:18:40;;;;;;;24.43;6.00;;;6.60;99.90;;;;;;4988595;28;20236;-85
2022/03/28 00:21:08;;;;;;;24.30;5.97;;;6.70;99.90;;;;;;5003261;28;20306;-85
2022/03/28 00:23:35;;;;;;;29.60;7.17;;;6.60;99.90;;;;;;5003290;28;20630;-85
2022/03/28 00:26:01;;;;;;;23.93;6.37;;;6.60;99.90;;;;;;5003330;28;20217;-84
2022/03/28 00:28:28;;;;;;;18.33;6.03;;;6.50;99.90;;;;;;4993042;28;20214;-84
2022/03/28 00:30:55;;;;;;;21.23;6.33;;;6.50;99.90;;;;;;4991333;28;20290;-84
2022/03/28 00:33:22;;;;;;;25.43;6.53;;;6.60;99.90;;;;;;5005000;28;20245;-84
2022/03/28 00:35:49;;;;;;;29.10;6.27;;;6.40;99.90;;;;;;5008471;28;20230;-85
2022/03/28 00:38:16;;;;;;;17.73;6.00;;;6.40;99.90;;;;;;4995464;28;20322;-85
2022/03/28 00:40:43;;;;;;;29.60;6.63;;;6.40;99.90;;;;;;5001848;28;20216;-85
2022/03/28 00:43:10;;;;;;;22.23;6.80;;;6.30;99.90;;;;;;5002873;28;20231;-84
2022/03/28 00:45:40;;;;;;;21.20;6.93;;;6.30;99.90;;;;;;4996685;28;20222;-84
2022/03/28 00:48:08;;;;;;;27.87;7.60;;;6.30;99.90;;;;;;4994119;28;20213;-85
2022/03/28 00:50:35;;;;;;;15.40;5.77;;;6.30;99.90;;;;;;4997419;28;20308;-85
2022/03/28 00:53:05;;;;;;;28.07;7.30;;;6.40;99.90;;;;;;5004512;28;20209;-84
2022/03/28 00:55:32;;;;;;;22.73;7.50;;;6.20;99.90;;;;;;4994625;28;20627;-84
2022/03/28 00:57:59;;;;;;;21.40;6.50;;;6.20;99.90;;;;;;5002300;28;20248;-85
2022/03/28 01:00:26;;;;;;;21.83;7.23;;;5.90;99.90;;;;;;4993303;28;20250;-85
2022/03/28 01:02:53;;;;;;;24.53;6.93;;;6.20;99.90;;;;;;5012205;28;20218;-85
2022/03/28 01:05:20;;;;;;;19.83;7.67;;;6.20;99.90;;;;;;5014798;28;20276;-86
2022/03/28 01:07:47;;;;;;;21.43;7.17;;;6.20;99.90;;;;;;5001061;28;20215;-85
2022/03/28 01:10:15;;;;;;;21.53;7.30;;;6.10;99.90;;;;;;5004749;28;20206;-84
2022/03/28 01:12:43;;;;;;;31.13;8.17;;;6.00;99.90;;;;;;5000405;28;20275;-84
2022/03/28 01:15:12;;;;;;;27.30;8.73;;;6.00;99.90;;;;;;4992863;28;20223;-85
2022/03/28 01:20:26;;;;;;;18.53;7.60;;;5.90;99.90;;;;;;5007040;28;20602;-84
2022/03/28 01:22:52;;;;;;;21.30;8.00;;;6.00;99.90;;;;;;5001169;28;20574;-85
2022/03/28 01:25:26;;;;;;;30.47;8.50;;;5.90;99.90;;;;;;5009038;28;20210;-84
2022/03/28 01:27:54;;;;;;;19.87;7.80;;;5.90;99.90;;;;;;4989601;28;20630;-85
2022/03/28 01:30:24;;;;;;;25.47;7.70;;;5.40;99.90;;;;;;5006042;28;20924;-86
2022/03/28 01:32:52;;;;;;;22.07;7.50;;;5.90;99.90;;;;;;4991787;28;20531;-85
2022/03/28 01:35:33;;;;;;;26.83;10.33;;;5.80;99.90;;;;;;4989230;28;20269;-84
2022/03/28 01:38:02;;;;;;;23.90;8.23;;;5.80;99.90;;;;;;5002588;28;20325;-84
2022/03/28 01:40:30;;;;;;;24.93;8.47;;;5.70;99.90;;;;;;4989962;28;20238;-85
2022/03/28 01:42:57;;;;;;;31.73;9.00;;;5.70;99.90;;;;;;4990583;28;20211;-84
2022/03/28 01:45:25;;;;;;;22.40;8.57;;;5.60;99.90;;;;;;4991399;28;20638;-85
2022/03/28 01:47:52;;;;;;;26.70;8.87;;;5.60;99.90;;;;;;5001275;28;20641;-83
2022/03/28 01:50:20;;;;;;;22.10;8.47;;;5.70;99.90;;;;;;5007222;28;20265;-84
2022/03/28 01:52:48;;;;;;;24.77;9.27;;;5.60;99.90;;;;;;5001885;28;20719;-84
2022/03/28 01:55:15;;;;;;;24.63;9.67;;;5.60;99.90;;;;;;5006731;28;20347;-84
2022/03/28 01:57:43;;;;;;;23.20;9.50;;;5.50;99.90;;;;;;4992927;28;20214;-84
2022/03/28 02:00:16;;;;;;;20.87;9.27;;;5.50;99.90;;;;;;5011544;28;20846;-85
2022/03/28 02:02:47;;;;;;;26.90;10.20;;;5.40;99.90;;;;;;5007646;28;20203;-84
2022/03/28 02:05:15;;;;;;;20.87;9.70;;;5.40;99.90;;;;;;4997167;28;20215;-85
2022/03/28 02:07:46;;;;;;;25.43;11.30;;;5.40;99.90;;;;;;4993632;28;20204;-84
2022/03/28 02:10:16;;;;;;;29.80;12.30;;;5.30;99.90;;;;;;5001497;28;20197;-84
2022/03/28 02:12:44;;;;;;;26.33;11.77;;;5.50;99.90;;;;;;5003537;28;20213;-84
2022/03/28 02:15:11;;;;;;;27.30;12.63;;;5.20;99.90;;;;;;5022239;28;20426;-84
2022/03/28 02:17:39;;;;;;;29.60;14.07;;;5.20;99.90;;;;;;5021175;28;20214;-84
2022/03/28 02:20:10;;;;;;;31.37;14.13;;;5.70;99.90;;;;;;4992963;28;20271;-85
2022/03/28 02:22:38;;;;;;;30.53;12.80;;;5.20;99.90;;;;;;4989046;28;20249;-85
2022/03/28 02:25:07;;;;;;;42.50;15.43;;;5.60;99.90;;;;;;5019994;28;20304;-85
2022/03/28 02:27:34;;;;;;;33.27;15.03;;;5.10;99.90;;;;;;5019834;28;20707;-85
2022/03/28 02:30:03;;;;;;;37.53;14.37;;;5.70;99.90;;;;;;5001798;28;20215;-85
2022/03/28 02:32:30;;;;;;;33.23;14.80;;;5.00;99.90;;;;;;5005391;28;20612;-85
2022/03/28 02:34:57;;;;;;;39.30;15.20;;;5.00;99.90;;;;;;5007719;28;20225;-85
2022/03/28 02:37:24;;;;;;;39.43;16.43;;;4.90;99.90;;;;;;5023575;28;20209;-84
2022/03/28 02:39:51;;;;;;;33.87;15.60;;;4.90;99.90;;;;;;5007479;28;20242;-84
2022/03/28 02:42:22;;;;;;;37.57;14.33;;;4.90;99.90;;;;;;5000359;28;20212;-83
2022/03/28 02:44:51;;;;;;;36.57;14.67;;;4.80;99.90;;;;;;5018924;28;20379;-84
2022/03/28 02:47:19;;;;;;;32.80;13.80;;;5.00;99.90;;;;;;5002423;28;20248;-85
2022/03/28 02:49:46;;;;;;;28.63;12.50;;;4.70;99.90;;;;;;5006520;28;20515;-85
2022/03/28 02:52:13;;;;;;;29.30;12.07;;;4.60;99.90;;;;;;5015485;28;20263;-84
2022/03/28 02:54:40;;;;;;;34.70;10.27;;;3.90;99.90;;;;;;4991034;28;20276;-84
2022/03/28 02:57:07;;;;;;;39.47;10.23;;;4.50;99.90;;;;;;4994352;28;20264;-84
2022/03/28 02:59:34;;;;;;;36.87;9.97;;;4.40;99.90;;;;;;4995561;28;20643;-85
2022/03/28 03:02:02;;;;;;;37.90;9.97;;;4.30;99.90;;;;;;5005709;28;20345;-84
2022/03/28 03:04:31;;;;;;;38.93;8.93;;;4.30;99.90;;;;;;4993620;28;20296;-85
2022/03/28 03:06:59;;;;;;;39.23;8.53;;;4.10;99.90;;;;;;4993909;28;20219;-84
2022/03/28 03:09:26;;;;;;;35.63;9.53;;;5.20;99.90;;;;;;4991504;28;20215;-84
2022/03/28 03:11:53;;;;;;;47.40;12.57;;;3.90;99.90;;;;;;5007846;28;20206;-84
2022/03/28 03:14:20;;;;;;;40.47;9.87;;;4.10;99.90;;;;;;5006503;28;20203;-84
2022/03/28 03:16:47;;;;;;;49.23;9.37;;;4.30;99.90;;;;;;5005562;28;20653;-84
2022/03/28 03:19:15;;;;;;;50.60;9.17;;;4.10;99.90;;;;;;4998857;28;20232;-85
2022/03/28 03:21:42;;;;;;;41.73;9.50;;;4.30;99.90;;;;;;4990638;28;20223;-85
2022/03/28 03:24:09;;;;;;;65.00;10.83;;;4.30;99.90;;;;;;5008859;28;20293;-84
2022/03/28 03:26:35;;;;;;;41.33;10.20;;;5.60;99.90;;;;;;5005765;28;20269;-85
2022/03/28 03:29:02;;;;;;;63.07;10.40;;;4.40;99.90;;;;;;5011497;28;20218;-84
2022/03/28 03:31:29;;;;;;;35.70;9.63;;;5.80;99.90;;;;;;5012441;28;20628;-85
2022/03/28 03:33:56;;;;;;;51.83;9.60;;;4.10;99.90;;;;;;4994563;28;20217;-85
2022/03/28 03:36:23;;;;;;;39.03;9.87;;;4.40;99.90;;;;;;4992072;28;20236;-85
2022/03/28 03:38:51;;;;;;;43.13;10.43;;;4.60;99.90;;;;;;4993480;28;20224;-84
2022/03/28 03:41:17;;;;;;;44.57;10.07;;;4.50;99.90;;;;;;4994911;28;20304;-84
2022/03/28 03:43:44;;;;;;;41.53;8.90;;;3.80;99.90;;;;;;5006686;28;20618;-84
2022/03/28 03:46:11;;;;;;;55.70;10.47;;;4.80;99.90;;;;;;4995131;28;20221;-85
2022/03/28 03:48:40;;;;;;;41.27;9.73;;;4.80;99.90;;;;;;4992912;28;20305;-86
2022/03/28 03:51:07;;;;;;;57.80;8.90;;;4.30;99.90;;;;;;4993334;28;20665;-83
2022/03/28 03:53:34;;;;;;;34.83;10.13;;;5.50;99.90;;;;;;4987860;28;20261;-86
2022/03/28 03:56:01;;;;;;;53.63;9.03;;;4.40;99.90;;;;;;4996294;28;20292;-85
2022/03/28 03:58:28;;;;;;;32.03;9.23;;;5.10;99.90;;;;;;5006654;28;20233;-85
2022/03/28 04:00:55;;;;;;;52.03;9.53;;;4.90;99.90;;;;;;5005476;28;20384;-85
2022/03/28 04:03:22;;;;;;;58.50;9.77;;;4.40;99.90;;;;;;4988997;28;20216;-84
2022/03/28 04:05:49;;;;;;;40.43;9.43;;;4.90;99.90;;;;;;5002471;28;20245;-85
2022/03/28 04:08:16;;;;;;;40.57;9.27;;;5.50;99.90;;;;;;5008130;28;20284;-85
2022/03/28 04:10:43;;;;;;;37.87;8.40;;;5.10;99.90;;;;;;4998794;28;20247;-84
2022/03/28 04:13:12;;;;;;;49.77;9.17;;;5.00;99.90;;;;;;5008203;28;20201;-84
2022/03/28 04:15:40;;;;;;;65.43;8.97;;;5.10;99.90;;;;;;4990742;28;20504;-85
2022/03/28 04:18:07;;;;;;;46.10;8.87;;;4.90;99.90;;;;;;4982804;28;20245;-84
2022/03/28 04:20:34;;;;;;;34.13;8.47;;;5.50;99.90;;;;;;4991506;28;20226;-85
2022/03/28 04:23:01;;;;;;;35.97;8.33;;;5.70;99.90;;;;;;5008501;28;20222;-84
2022/03/28 04:25:27;;;;;;;33.47;8.93;;;5.80;99.90;;;;;;4991950;28;20218;-85
2022/03/28 04:27:54;;;;;;;57.97;9.87;;;5.40;99.90;;;;;;5007119;28;20241;-83
2022/03/28 04:30:23;;;;;;;45.20;8.67;;;5.40;99.90;;;;;;4993038;28;20264;-84
2022/03/28 04:32:50;;;;;;;35.17;7.90;;;6.00;99.90;;;;;;4991251;28;20242;-84
2022/03/28 04:35:19;;;;;;;40.77;8.60;;;4.60;99.90;;;;;;4987861;28;20811;-85
2022/03/28 04:37:46;;;;;;;39.97;8.43;;;4.40;99.90;;;;;;5010309;28;20203;-84
2022/03/28 04:40:15;;;;;;;27.60;7.93;;;4.50;99.90;;;;;;4995867;28;20239;-83
2022/03/28 04:42:45;;;;;;;52.40;8.63;;;6.40;99.90;;;;;;5008863;28;20234;-84
2022/03/28 04:45:13;;;;;;;44.80;8.03;;;4.90;99.90;;;;;;5000302;28;20259;-86
2022/03/28 04:47:40;;;;;;;37.80;9.50;;;5.30;99.90;;;;;;4993144;28;20218;-85
2022/03/28 04:50:08;;;;;;;55.27;9.37;;;5.90;99.90;;;;;;4996942;28;20239;-86
2022/03/28 04:52:36;;;;;;;30.77;8.17;;;5.30;99.90;;;;;;4991180;28;20216;-84
2022/03/28 04:55:04;;;;;;;49.87;8.93;;;4.60;99.90;;;;;;4991644;28;20203;-84
2022/03/28 04:57:32;;;;;;;52.73;8.80;;;5.60;99.90;;;;;;5006793;28;20537;-83
2022/03/28 05:00:00;;;;;;;78.93;9.97;;;6.50;99.90;;;;;;4992278;28;20224;-84
2022/03/28 05:02:27;;;;;;;59.07;8.80;;;5.00;99.90;;;;;;5003532;28;20208;-84
2022/03/28 05:04:54;;;;;;;60.13;9.27;;;4.60;99.90;;;;;;5003360;28;20207;-84
2022/03/28 05:07:29;;;;;;;39.90;8.83;;;5.80;99.90;;;;;;4981956;28;20660;-85
2022/03/28 05:09:58;;;;;;;26.90;7.73;;;5.80;99.90;;;;;;4990157;28;20208;-85
2022/03/28 05:12:26;;;;;;;32.10;8.40;;;5.70;99.90;;;;;;5004457;28;20656;-85
2022/03/28 05:14:54;;;;;;;27.63;7.47;;;5.00;99.90;;;;;;5009011;28;20235;-84
2022/03/28 05:17:30;;;;;;;47.77;8.83;;;5.40;99.90;;;;;;5008279;28;20195;-85
2022/03/28 05:19:59;;;;;;;53.77;9.03;;;5.80;99.90;;;;;;5004764;28;20597;-84
2022/03/28 05:22:26;;;;;;;46.63;7.80;;;5.90;99.90;;;;;;5005154;28;20208;-83
2022/03/28 05:24:54;;;;;;;43.03;7.23;;;6.80;99.90;;;;;;4993451;28;20223;-86
2022/03/28 05:27:22;;;;;;;45.50;8.07;;;4.50;99.90;;;;;;4989946;28;20365;-85
2022/03/28 05:29:49;;;;;;;61.77;7.77;;;6.60;99.90;;;;;;4992031;28;20301;-86
2022/03/28 05:32:16;;;;;;;39.70;7.37;;;5.00;99.90;;;;;;4998039;28;20222;-87
2022/03/28 05:34:43;;;;;;;34.80;6.47;;;6.50;99.90;;;;;;5000721;28;20207;-85
2022/03/28 05:37:12;;;;;;;47.60;7.07;;;6.60;99.90;;;;;;5011019;28;20720;-87
2022/03/28 05:39:40;;;;;;;30.37;6.83;;;7.00;99.90;;;;;;5008535;28;20228;-86
2022/03/28 05:42:08;;;;;;;64.03;7.57;;;5.00;99.90;;;;;;4995789;28;20666;-85
2022/03/28 05:44:36;;;;;;;22.43;5.83;;;5.40;99.90;;;;;;4994218;28;20210;-83
2022/03/28 05:47:03;;;;;;;37.20;6.37;;;5.40;99.90;;;;;;4991703;28;20223;-84
2022/03/28 05:49:31;;;;;;;30.10;7.63;;;5.40;99.90;;;;;;4999233;28;20216;-84
2022/03/28 05:51:58;;;;;;;42.03;7.47;;;5.40;99.90;;;;;;5012876;28;20555;-84
2022/03/28 05:54:25;;;;;;;34.27;6.60;;;5.40;99.90;;;;;;5013849;28;20221;-84
2022/03/28 05:56:52;;;;;;;38.13;5.97;;;5.40;99.90;;;;;;4999894;28;20214;-82
2022/03/28 05:59:19;;;;;;;41.67;6.57;;;5.60;99.90;;;;;;5009360;28;20310;-82
2022/03/28 06:01:48;;;;;;;27.40;6.50;;;5.50;99.90;;;;;;5017310;28;20236;-84
2022/03/28 06:04:15;;;;;;;32.03;5.73;;;5.60;99.90;;;;;;4988580;28;20221;-82
2022/03/28 06:06:42;;;;;;;30.30;5.87;;;5.60;99.90;;;;;;5006680;28;20373;-82
2022/03/28 06:09:10;;;;;;;25.10;6.10;;;5.90;99.90;;;;;;4988362;28;20203;-82
2022/03/28 06:11:37;;;;;;;42.90;6.03;;;5.70;99.90;;;;;;4996363;28;20618;-82
2022/03/28 06:14:04;;;;;;;25.40;5.43;;;5.70;99.90;;;;;;5007867;28;20205;-82
2022/03/28 06:16:31;;;;;;;31.93;5.87;;;5.70;99.90;;;;;;5007865;28;20251;-83
2022/03/28 06:18:58;;;;;;;29.97;5.97;;;5.70;99.90;;;;;;5011314;28;20210;-83
2022/03/28 06:21:25;;;;;;;70.30;7.47;;;5.80;99.90;;;;;;4988212;28;20234;-83
2022/03/28 06:23:52;;;;;;;41.13;5.63;;;5.80;99.90;;;;;;4993625;28;20229;-83
2022/03/28 06:26:19;;;;;;;46.70;5.77;;;5.80;99.90;;;;;;5007989;28;20669;-83
2022/03/28 06:28:46;;;;;;;59.17;6.27;;;5.90;99.90;;;;;;4992070;28;20207;-84
2022/03/28 06:31:14;;;;;;;44.37;4.83;;;5.70;99.90;;;;;;4993078;28;20230;-82
2022/03/28 06:33:42;;;;;;;36.03;5.20;;;5.80;99.90;;;;;;4997075;28;20216;-82
2022/03/28 06:36:09;;;;;;;55.80;5.43;;;5.80;99.90;;;;;;4989560;28;20709;-83
2022/03/28 06:38:37;;;;;;;43.77;4.87;;;5.70;99.90;;;;;;5002630;28;20666;-84
2022/03/28 06:41:05;;;;;;;66.20;5.73;;;5.70;99.90;;;;;;5013843;28;20234;-82
2022/03/28 06:43:32;;;;;;;55.83;5.33;;;5.70;99.90;;;;;;5007820;28;20696;-81
2022/03/28 06:45:59;;;;;;;50.47;5.73;;;5.60;99.90;;;;;;4992656;28;20237;-83
2022/03/28 06:48:26;;;;;;;38.60;5.10;;;5.60;99.90;;;;;;4989862;28;20208;-84
2022/03/28 06:51:01;;;;;;;27.93;4.73;;;5.60;99.90;;;;;;4995152;28;20314;-83
2022/03/28 06:53:32;;;;;;;27.63;4.37;;;5.70;99.90;;;;;;4999211;28;20208;-84
2022/03/28 06:55:59;;;;;;;40.43;5.37;;;5.80;99.90;;;;;;4998742;28;20781;-83
2022/03/28 06:58:25;;;;;;;17.77;4.23;;;5.90;99.90;;;;;;4998260;28;20630;-83
2022/03/28 07:00:53;;;;;;;14.13;4.20;;;6.10;99.90;;;;;;5004436;28;20262;-84
2022/03/28 07:03:20;;;;;;;20.87;5.03;;;6.00;99.90;;;;;;5020735;28;20246;-81
2022/03/28 07:05:47;;;;;;;20.53;4.63;;;6.20;99.90;;;;;;5012275;28;20218;-81
2022/03/28 07:08:14;;;;;;;24.17;4.53;;;6.20;99.90;;;;;;4996773;28;20687;-82
2022/03/28 07:10:41;;;;;;;13.10;4.53;;;6.40;99.90;;;;;;5002607;28;20239;-82
2022/03/28 07:13:08;;;;;;;20.03;4.37;;;6.40;99.90;;;;;;5015989;28;20206;-82
2022/03/28 07:15:35;;;;;;;15.83;3.93;;;6.40;99.90;;;;;;5015431;28;20697;-83
2022/03/28 07:18:05;;;;;;;17.63;3.90;;;6.40;99.90;;;;;;5013495;28;20211;-83
2022/03/28 07:20:33;;;;;;;10.90;3.53;;;6.40;99.90;;;;;;5010195;28;20678;-82
2022/03/28 07:23:01;;;;;;;11.37;3.50;;;6.50;99.90;;;;;;5011636;28;20667;-82
2022/03/28 07:25:29;;;;;;;16.63;4.00;;;6.60;99.90;;;;;;4994721;28;20269;-83
2022/03/28 07:27:56;;;;;;;32.47;4.60;;;6.70;99.90;;;;;;5010714;28;20306;-82
2022/03/28 07:30:24;;;;;;;34.67;4.67;;;6.60;99.90;;;;;;4999312;28;20748;-84
2022/03/28 07:32:52;;;;;;;18.43;3.87;;;6.60;99.90;;;;;;5013571;28;20243;-85
2022/03/28 07:35:20;;;;;;;9.73;3.50;;;6.50;99.90;;;;;;5010709;28;20242;-82
2022/03/28 07:37:48;;;;;;;14.43;3.80;;;6.50;99.90;;;;;;4995626;28;20591;-84
2022/03/28 07:40:15;;;;;;;18.03;4.10;;;6.50;99.90;;;;;;5005913;28;20554;-82
2022/03/28 07:42:43;;;;;;;28.33;4.30;;;6.60;99.90;;;;;;4995657;28;20215;-84
2022/03/28 07:45:10;;;;;;;13.20;3.90;;;6.60;99.90;;;;;;5005477;28;20726;-83
2022/03/28 07:47:38;;;;;;;9.77;3.87;;;6.70;99.90;;;;;;5005736;28;20208;-84
2022/03/28 07:50:06;;;;;;;10.63;3.60;;;6.70;99.90;;;;;;5004920;28;20212;-82
2022/03/28 07:52:34;;;;;;;9.87;4.00;;;6.90;99.90;;;;;;5007918;28;20224;-83
2022/03/28 07:55:01;;;;;;;15.70;4.03;;;7.00;99.90;;;;;;4987794;28;20309;-82
2022/03/28 07:57:28;;;;;;;7.57;3.90;;;7.00;99.90;;;;;;4994061;28;20264;-83
2022/03/28 07:59:55;;;;;;;8.43;4.13;;;7.10;99.90;;;;;;4990469;28;20216;-82
2022/03/28 08:02:42;;;;;;;21.00;3.83;;;7.20;99.90;;;;;;4990955;28;20692;-83
2022/03/28 08:05:10;;;;;;;24.23;4.40;;;7.20;99.90;;;;;;5004692;28;20207;-82
2022/03/28 08:08:11;;;;;;;13.10;4.07;;;7.20;99.90;;;;;;4991373;28;20725;-82
2022/03/28 08:10:58;;;;;;;10.27;4.40;;;7.20;99.90;;;;;;4987966;28;20212;-83
2022/03/28 08:13:25;;;;;;;11.13;4.17;;;7.30;99.90;;;;;;4993071;28;20201;-83
2022/03/28 08:15:52;;;;;;;7.47;3.97;;;7.30;99.90;;;;;;5006239;28;20285;-82
2022/03/28 08:18:27;;;;;;;14.63;4.47;;;7.40;99.90;;;;;;4991515;28;20213;-84
2022/03/28 08:20:57;;;;;;;10.33;4.07;;;7.50;99.90;;;;;;4992050;28;20328;-83
2022/03/28 08:23:23;;;;;;;14.57;4.17;;;7.60;99.90;;;;;;4998859;28;20708;-84
2022/03/28 08:25:53;;;;;;;11.10;4.83;;;7.60;99.90;;;;;;5014360;28;20213;-84
2022/03/28 08:28:32;;;;;;;7.97;4.20;;;7.60;99.90;;;;;;4998448;28;20220;-83
2022/03/28 08:31:18;;;;;;;11.67;4.27;;;7.70;99.90;;;;;;5006305;28;20237;-84
2022/03/28 08:33:51;;;;;;;11.90;4.90;;;7.70;99.90;;;;;;4991613;28;20221;-83
2022/03/28 08:36:19;;;;;;;10.27;4.70;;;7.80;99.90;;;;;;4989064;28;20264;-84
2022/03/28 08:38:46;;;;;;;10.53;4.90;;;7.70;99.90;;;;;;5003509;28;20221;-84
2022/03/28 08:41:25;;;;;;;10.03;5.03;;;7.70;99.90;;;;;;5004089;28;20245;-84
2022/03/28 08:47:03;;;;;;;9.90;5.07;;;7.80;99.90;;;;;;4995915;28;20352;-84
2022/03/28 08:49:30;;;;;;;14.33;5.97;;;7.80;99.90;;;;;;4990335;28;20206;-82
2022/03/28 08:52:12;;;;;;;10.53;4.53;;;7.90;99.90;;;;;;5004981;28;20537;-83
2022/03/28 08:54:43;;;;;;;8.60;5.00;;;7.90;99.90;;;;;;4990085;28;20615;-84
2022/03/28 08:57:19;;;;;;;9.70;4.90;;;7.90;99.90;;;;;;5007159;28;20237;-83
2022/03/28 08:59:59;;;;;;;12.23;5.17;;;7.90;99.90;;;;;;4989114;28;20628;-82
2022/03/28 09:02:50;;;;;;;9.47;4.97;;;8.00;99.90;;;;;;5006417;28;20207;-82
2022/03/28 09:05:29;;;;;;;14.00;4.57;;;8.00;99.90;;;;;;4986120;28;20555;-84
2022/03/28 09:07:58;;;;;;;14.87;5.77;;;8.00;99.90;;;;;;4989517;28;20297;-84
2022/03/28 09:10:29;;;;;;;9.87;5.50;;;8.00;99.90;;;;;;4990329;28;20260;-84
2022/03/28 09:13:05;;;;;;;14.70;5.43;;;8.10;99.90;;;;;;5001558;28;20207;-83
2022/03/28 09:16:18;;;;;;;11.97;6.07;;;8.10;99.90;;;;;;5004911;28;20276;-83
2022/03/28 09:18:57;;;;;;;12.57;6.50;;;8.20;99.90;;;;;;4970450;28;20740;-85
2022/03/28 09:21:33;;;;;;;10.13;4.83;;;8.20;99.90;;;;;;4975827;28;20734;-82
2022/03/28 09:24:12;;;;;;;8.13;5.20;;;8.40;99.90;;;;;;4984683;28;20258;-83
2022/03/28 09:26:39;;;;;;;13.73;7.27;;;8.40;99.90;;;;;;4989139;28;20212;-82
2022/03/28 09:29:08;;;;;;;12.27;6.10;;;8.50;99.90;;;;;;5001356;28;20654;-84
2022/03/28 09:31:42;;;;;;;14.50;6.40;;;8.50;99.90;;;;;;4991193;28;20314;-84
2022/03/28 09:34:18;;;;;;;13.23;6.50;;;8.60;99.90;;;;;;4997428;28;20261;-84
2022/03/28 09:37:01;;;;;;;13.60;6.50;;;8.70;99.90;;;;;;4998963;28;20298;-85
2022/03/28 09:39:36;;;;;;;12.80;6.63;;;8.80;99.90;;;;;;4997835;28;20211;-83
2022/03/28 09:42:11;;;;;;;11.73;5.90;;;8.90;99.90;;;;;;4983002;28;20233;-86
2022/03/28 09:44:43;;;;;;;12.07;6.23;;;9.00;99.90;;;;;;5005075;28;20215;-83
2022/03/28 09:47:14;;;;;;;14.10;6.20;;;9.10;99.90;;;;;;4990137;28;20309;-84
2022/03/28 09:49:43;;;;;;;12.00;5.93;;;9.20;99.90;;;;;;5002271;28;20306;-83
2022/03/28 09:52:22;;;;;;;11.67;5.97;;;9.30;99.90;;;;;;5003989;28;20265;-84
2022/03/28 09:54:54;;;;;;;11.53;6.30;;;9.40;99.90;;;;;;5006746;28;20654;-83
2022/03/28 09:57:33;;;;;;;10.43;6.07;;;9.40;99.90;;;;;;5005928;28;20214;-84
2022/03/28 10:00:17;;;;;;;14.60;6.03;;;9.50;99.90;;;;;;4991601;28;20231;-84
2022/03/28 10:02:46;;;;;;;11.97;6.40;;;9.60;99.90;;;;;;4984616;28;20219;-83
2022/03/28 10:05:13;;;;;;;13.07;6.83;;;9.40;99.90;;;;;;4999743;28;20211;-82
2022/03/28 10:07:40;;;;;;;11.93;6.63;;;9.60;99.90;;;;;;4990480;28;20222;-83
2022/03/28 10:10:09;;;;;;;13.27;6.70;;;9.60;99.90;;;;;;5005130;28;20732;-84
2022/03/28 10:12:38;;;;;;;10.27;5.87;;;9.70;99.90;;;;;;4991011;28;20214;-84
2022/03/28 10:15:06;;;;;;;12.40;6.47;;;9.80;99.90;;;;;;5004652;28;20224;-83
2022/03/28 10:17:34;;;;;;;13.47;6.37;;;9.90;99.90;;;;;;4988890;28;20620;-84
2022/03/28 10:20:02;;;;;;;12.27;6.40;;;10.00;99.90;;;;;;4988198;28;20209;-81
2022/03/28 10:22:53;;;;;;;13.23;6.53;;;10.00;99.90;;;;;;4996889;28;20321;-82
2022/03/28 10:25:24;;;;;;;13.27;6.97;;;10.10;99.90;;;;;;5008722;28;20215;-82
2022/03/28 10:27:54;;;;;;;11.47;6.77;;;10.10;99.90;;;;;;4992041;28;20701;-83
2022/03/28 10:30:27;;;;;;;9.60;6.10;;;10.20;99.90;;;;;;4991071;28;20361;-85
2022/03/28 10:33:18;;;;;;;12.97;6.57;;;10.20;99.90;;;;;;4992590;28;20803;-82
2022/03/28 10:35:57;;;;;;;13.53;6.53;;;10.30;99.90;;;;;;4987668;28;20608;-81
2022/03/28 10:38:24;;;;;;;16.10;7.47;;;10.40;99.90;;;;;;5008434;28;20228;-83
2022/03/28 10:40:53;;;;;;;14.63;7.10;;;10.50;99.90;;;;;;5006345;28;20228;-84
2022/03/28 10:43:21;;;;;;;13.23;7.10;;;10.50;99.90;;;;;;5008886;28;20237;-83
2022/03/28 10:46:15;;;;;;;14.90;7.50;;;10.60;99.90;;;;;;5009193;28;20288;-84
2022/03/28 10:48:59;;;;;;;14.77;7.60;;;10.70;99.90;;;;;;5009220;28;20216;-85
2022/03/28 10:51:30;;;;;;;12.27;6.87;;;10.70;99.90;;;;;;5011925;28;20237;-83
2022/03/28 10:54:07;;;;;;;15.03;7.37;;;10.80;99.90;;;;;;5004277;28;20213;-83
2022/03/28 10:56:45;;;;;;;15.33;7.40;;;10.90;99.90;;;;;;5008738;28;20278;-83
2022/03/28 10:59:18;;;;;;;13.00;7.53;;;11.00;99.90;;;;;;4990714;28;20253;-83
2022/03/28 11:01:49;;;;;;;16.03;7.97;;;11.10;99.90;;;;;;5007662;28;20837;-84
2022/03/28 11:04:24;;;;;;;18.13;8.67;;;11.10;99.90;;;;;;4993210;28;20286;-85
2022/03/28 11:07:25;;;;;;;15.97;8.40;;;11.10;99.90;;;;;;5007767;28;20323;-84
2022/03/28 11:10:05;;;;;;;21.63;8.60;;;11.20;99.90;;;;;;4995405;28;20692;-85
2022/03/28 11:12:37;;;;;;;16.83;7.60;;;11.30;99.90;;;;;;5011133;28;20206;-85
2022/03/28 11:15:19;;;;;;;14.93;8.73;;;11.40;99.90;;;;;;5007036;28;20542;-83
2022/03/28 11:17:58;;;;;;;14.87;7.47;;;11.60;99.90;;;;;;4992495;28;20369;-85
2022/03/28 11:20:51;;;;;;;16.17;8.20;;;11.80;99.90;;;;;;5005566;28;20206;-85
2022/03/28 11:23:20;;;;;;;14.63;8.17;;;12.00;99.90;;;;;;4994001;28;20301;-84
2022/03/28 11:25:52;;;;;;;14.63;7.83;;;12.10;99.90;;;;;;4989026;28;20230;-84
2022/03/28 11:28:27;;;;;;;17.93;7.60;;;12.20;99.90;;;;;;4996689;28;20218;-83
2022/03/28 11:31:07;;;;;;;19.07;9.00;;;12.20;99.90;;;;;;5002291;28;20229;-82
2022/03/28 11:33:37;;;;;;;14.37;8.07;;;12.30;99.90;;;;;;5003303;28;20206;-82
2022/03/28 11:36:07;;;;;;;14.20;7.27;;;12.20;99.90;;;;;;4988840;28;20294;-82
2022/03/28 11:38:55;;;;;;;14.83;7.93;;;12.30;99.90;;;;;;4988180;28;20280;-83
2022/03/28 11:41:34;;;;;;;15.80;7.70;;;12.30;99.90;;;;;;4972919;28;20303;-84
2022/03/28 11:44:04;;;;;;;14.43;8.20;;;12.50;99.90;;;;;;4967629;28;20318;-85
2022/03/28 11:46:32;;;;;;;16.87;8.53;;;12.60;99.90;;;;;;4988540;28;20219;-85
2022/03/28 11:49:26;;;;;;;15.77;7.30;;;12.80;99.90;;;;;;4988612;28;20857;-86
2022/03/28 11:52:00;;;;;;;13.80;7.93;;;12.80;99.90;;;;;;4994104;28;20214;-86
2022/03/28 11:54:29;;;;;;;13.63;7.53;;;12.90;99.90;;;;;;4971639;28;20207;-83
2022/03/28 11:59:42;;;;;;;14.57;8.43;;;13.00;99.90;;;;;;4993108;28;20198;-81
2022/03/28 12:02:12;;;;;;;17.03;7.60;;;13.30;99.90;;;;;;4981794;28;20238;-83
2022/03/28 12:04:47;;;;;;;14.70;7.90;;;13.50;99.90;;;;;;4988154;28;20198;-83
2022/03/28 12:07:15;;;;;;;20.00;8.33;;;13.70;99.90;;;;;;4988107;28;20213;-83
2022/03/28 12:09:43;;;;;;;13.77;7.83;;;13.70;99.90;;;;;;4973566;28;20195;-84
2022/03/28 12:12:22;;;;;;;16.77;7.27;;;13.70;99.90;;;;;;4992252;28;20494;-82
2022/03/28 12:14:51;;;;;;;17.77;8.30;;;13.80;99.90;;;;;;4966452;28;20265;-82
2022/03/28 12:17:27;;;;;;;15.13;8.17;;;13.90;99.90;;;;;;4983374;28;20793;-82
2022/03/28 12:20:04;;;;;;;13.30;7.67;;;13.90;99.90;;;;;;4972176;28;20319;-85
2022/03/28 12:22:44;;;;;;;16.53;8.23;;;14.10;99.90;;;;;;4972851;28;20293;-84
2022/03/28 12:25:41;;;;;;;16.23;7.53;;;14.20;99.90;;;;;;4991075;28;20207;-85
2022/03/28 12:28:12;;;;;;;16.13;8.13;;;14.20;99.90;;;;;;4969200;28;20834;-82
2022/03/28 12:30:40;;;;;;;19.57;8.60;;;14.20;99.90;;;;;;4985640;28;20653;-83
2022/03/28 12:33:34;;;;;;;13.30;7.87;;;14.40;99.90;;;;;;4985827;28;20218;-82
2022/03/28 12:36:10;;;;;;;15.57;8.47;;;14.30;99.90;;;;;;4982910;28;20641;-83
2022/03/28 12:38:52;;;;;;;14.30;7.83;;;14.40;99.90;;;;;;4970103;28;20207;-84
2022/03/28 12:41:21;;;;;;;16.40;7.80;;;14.50;99.90;;;;;;4980324;28;20782;-83
2022/03/28 12:43:52;;;;;;;19.10;8.17;;;14.50;99.90;;;;;;4969712;28;20222;-83
2022/03/28 12:46:25;;;;;;;18.40;8.70;;;14.60;99.90;;;;;;4967677;28;20218;-83
2022/03/28 12:48:57;;;;;;;15.57;7.83;;;14.60;99.90;;;;;;4984798;28;20208;-80
2022/03/28 12:51:34;;;;;;;18.37;7.73;;;14.70;99.90;;;;;;4991859;28;20745;-86
2022/03/28 12:54:10;;;;;;;18.50;8.07;;;14.80;99.90;;;;;;4975236;28;20736;-87
2022/03/28 12:56:59;;;;;;;18.60;8.37;;;14.90;99.90;;;;;;4984275;28;20285;-85
2022/03/28 12:59:37;;;;;;;24.13;9.73;;;15.00;99.90;;;;;;4970613;28;20697;-83
2022/03/28 13:02:20;;;;;;;19.07;7.90;;;15.10;99.90;;;;;;4985040;28;20320;-81
2022/03/28 13:04:58;;;;;;;16.87;8.10;;;15.10;99.90;;;;;;4975745;28;20207;-83
2022/03/28 13:07:39;;;;;;;15.00;7.70;;;15.30;99.90;;;;;;4982722;28;20704;-83
2022/03/28 13:10:22;;;;;;;17.77;8.60;;;15.30;99.90;;;;;;4983205;28;20211;-83